Date,TemperatureHighF,TemperatureAvgF,TemperatureLowF,DewpointHighF,DewpointAvgF,DewpointLowF,HumidityHigh,HumidityAvg,HumidityLow,PressureMaxIn,PressureMinIn,WindSpeedMaxMPH,WindSpeedAvgMPH,GustSpeedMaxMPH,PrecipitationSumIn
2013-1-1,58,42,33,39,31,27,85,67,35,30.22,30.15,11,3,11,0.00
2013-1-2,54,42,32,35,30,25,76,64,46,30.22,30.11,14,4,14,0.00
2013-1-3,56,43,30,37,32,24,78,67,49,30.26,30.13,11,2,11,0.00
2013-1-4,56,43,33,39,33,27,80,69,51,30.27,29.73,8,2,8,4.09
2013-1-5,50,45,35,41,38,28,82,76,67,30.22,30.05,12,5,12,0.18
2013-1-6,56,48,40,43,40,35,83,74,58,30.17,30.04,11,3,11,0.01
2013-1-7,61,49,37,47,40,32,85,73,57,30.24,30.13,11,3,11,0.00
2013-1-8,60,48,38,46,40,34,85,74,59,30.23,30.11,11,3,11,0.00
2013-1-9,60,48,39,46,39,32,79,70,59,30.20,29.97,22,6,22,0.00
2013-1-10,52,44,33,35,31,27,78,60,40,30.18,30.05,18,7,18,0.00
2013-1-11,52,44,37,39,34,26,77,67,53,30.23,30.10,19,5,19,0.00
2013-1-12,52,42,30,34,29,23,78,60,41,30.24,30.12,8,2,8,0.00
2013-1-13,51,41,27,33,27,14,77,59,27,30.26,30.16,24,3,24,0.00
2013-1-14,54,44,30,31,23,11,71,46,25,30.39,30.20,10,3,10,0.00
2013-1-15,53,39,30,33,28,23,76,65,44,30.47,30.37,10,2,10,0.00
2013-1-16,58,44,30,38,32,24,77,63,44,30.42,30.25,10,2,10,0.00
2013-1-17,60,43,30,39,32,24,79,66,43,30.26,30.13,11,2,11,0.00
2013-1-18,61,47,31,40,34,24,77,61,43,30.22,30.11,14,4,14,0.00
2013-1-19,62,45,30,39,32,24,78,62,42,30.23,30.14,14,4,14,0.00
2013-1-20,62,44,31,37,31,24,77,62,35,30.21,30.11,13,3,13,0.00
2013-1-21,62,49,30,42,35,23,81,60,40,30.17,30.07,14,6,14,0.00
2013-1-22,61,49,34,41,36,27,79,62,44,30.10,29.96,15,6,15,0.00
2013-1-23,53,50,49,44,42,38,81,73,62,30.08,29.93,17,4,17,0.26
2013-1-24,59,53,49,49,46,43,82,76,68,30.15,30.04,9,4,9,0.00
2013-1-25,64,55,50,51,47,44,83,75,62,30.17,30.01,11,3,11,0.00
2013-1-26,58,51,43,46,40,35,82,67,51,30.06,29.95,26,9,26,0.00
2013-1-27,43,43,43,35,35,35,72,72,72,30.05,30.05,9,6,9,0.00
2013-1-28,60,49,39,42,37,31,74,64,42,30.27,30.13,17,6,17,0.00
2013-1-29,60,50,42,43,39,34,74,65,49,30.33,30.24,15,6,15,0.00
2013-1-30,67,53,38,45,40,32,79,62,44,30.31,30.24,8,2,8,0.00
2013-1-31,65,47,36,45,37,29,81,70,47,30.29,30.16,10,2,10,0.00